createdAt,value
2019-03-20T00:02:15.693Z,13.77
2019-03-20T00:04:49.807Z,10.37
2019-03-20T00:07:13.743Z,16.30
2019-03-20T00:09:41.809Z,18.90
2019-03-20T00:12:09.811Z,12.50
2019-03-20T00:14:37.833Z,11.17
2019-03-20T00:17:05.956Z,13.47
2019-03-20T00:19:34.298Z,11.90
2019-03-20T00:22:02.884Z,8.77
2019-03-20T00:24:30.812Z,13.67
2019-03-20T00:26:59.026Z,12.43
2019-03-20T00:29:27.066Z,9.57
2019-03-20T00:31:55.105Z,10.40
2019-03-20T00:34:23.138Z,10.00
2019-03-20T00:36:51.182Z,12.10
2019-03-20T00:39:19.213Z,15.80
2019-03-20T00:41:47.240Z,14.87
2019-03-20T00:44:15.257Z,17.53
2019-03-20T00:46:45.182Z,16.23
2019-03-20T00:49:13.138Z,13.03
2019-03-20T00:51:41.096Z,14.07
2019-03-20T00:54:09.149Z,17.80
2019-03-20T00:56:37.195Z,20.03
2019-03-20T00:59:06.424Z,14.87
2019-03-20T01:01:34.397Z,13.83
2019-03-20T01:04:02.739Z,16.80
2019-03-20T01:06:30.688Z,9.33
2019-03-20T01:08:58.698Z,14.07
2019-03-20T01:11:26.720Z,8.67
2019-03-20T01:13:55.828Z,8.73
2019-03-20T01:16:23.913Z,10.30
2019-03-20T01:18:51.926Z,9.20
2019-03-20T01:21:19.931Z,6.43
2019-03-20T01:23:47.927Z,9.33
2019-03-20T01:26:15.937Z,16.30
2019-03-20T01:28:43.940Z,25.90
2019-03-20T01:31:12.214Z,27.20
2019-03-20T01:33:40.448Z,31.03
2019-03-20T01:36:08.460Z,29.33
2019-03-20T01:38:36.429Z,17.87
2019-03-20T01:41:04.419Z,13.87
2019-03-20T01:43:32.571Z,11.37
2019-03-20T01:46:00.644Z,9.47
2019-03-20T01:48:28.596Z,12.67
2019-03-20T01:51:11.186Z,13.90
2019-03-20T01:53:39.245Z,11.90
2019-03-20T01:56:07.284Z,10.00
2019-03-20T01:58:35.317Z,12.37
2019-03-20T02:01:03.392Z,13.23
2019-03-20T02:03:31.534Z,8.47
2019-03-20T02:05:59.559Z,6.93
2019-03-20T02:08:27.644Z,11.30
2019-03-20T02:10:56.501Z,9.83
2019-03-20T02:13:24.570Z,8.37
2019-03-20T02:15:52.615Z,9.17
2019-03-20T02:18:20.672Z,9.07
2019-03-20T02:20:48.685Z,8.17
2019-03-20T02:23:16.720Z,9.10
2019-03-20T02:25:44.771Z,9.10
2019-03-20T02:28:12.842Z,8.87
2019-03-20T02:30:41.252Z,7.00
2019-03-20T02:33:09.662Z,6.10
2019-03-20T02:35:50.793Z,6.93
2019-03-20T02:38:07.572Z,7.43
2019-03-20T02:40:35.734Z,7.07
2019-03-20T02:43:04.126Z,7.17
2019-03-20T02:45:32.163Z,10.37
2019-03-20T02:48:00.199Z,8.07
2019-03-20T02:50:28.190Z,16.67
2019-03-20T02:52:56.265Z,16.17
2019-03-20T02:55:24.316Z,8.23
2019-03-20T02:57:52.392Z,10.83
2019-03-20T03:00:20.567Z,10.53
2019-03-20T03:02:48.678Z,6.77
2019-03-20T03:05:16.934Z,11.63
2019-03-20T03:07:45.065Z,11.57
2019-03-20T03:10:13.603Z,7.77
2019-03-20T03:12:41.671Z,11.77
2019-03-20T03:15:09.757Z,11.87
2019-03-20T03:17:38.033Z,12.07
2019-03-20T03:20:06.245Z,10.07
2019-03-20T03:22:34.361Z,7.47
2019-03-20T03:25:02.389Z,13.07
2019-03-20T03:27:30.491Z,7.83
2019-03-20T03:29:58.557Z,6.57
2019-03-20T03:32:26.667Z,5.97
2019-03-20T03:34:54.716Z,8.97
2019-03-20T03:37:22.954Z,15.83
2019-03-20T03:39:51.338Z,9.20
2019-03-20T03:42:19.365Z,10.93
2019-03-20T03:44:47.446Z,11.27
2019-03-20T03:47:15.491Z,12.40
2019-03-20T03:49:44.891Z,12.20
2019-03-20T03:52:12.962Z,8.83
2019-03-20T03:54:41.039Z,11.40
2019-03-20T03:57:23.895Z,10.70
2019-03-20T03:59:52.514Z,13.00
2019-03-20T04:02:20.564Z,13.97
2019-03-20T04:04:48.760Z,13.73
2019-03-20T04:07:16.821Z,19.13
2019-03-20T04:09:44.894Z,11.87
2019-03-20T04:12:12.936Z,16.20
2019-03-20T04:14:41.140Z,15.40
2019-03-20T04:17:20.529Z,18.17
2019-03-20T04:19:48.657Z,20.60
2019-03-20T04:22:16.654Z,19.13
2019-03-20T04:24:44.720Z,17.67
2019-03-20T04:27:12.791Z,16.70
2019-03-20T04:29:40.837Z,17.47
2019-03-20T04:32:08.884Z,18.37
2019-03-20T04:34:36.952Z,19.73
2019-03-20T04:37:05.007Z,15.27
2019-03-20T04:39:33.086Z,19.20
2019-03-20T04:42:01.355Z,20.60
2019-03-20T04:44:29.433Z,20.30
2019-03-20T04:46:57.471Z,15.53
2019-03-20T04:49:25.936Z,18.57
2019-03-20T04:51:54.060Z,22.97
2019-03-20T04:54:22.150Z,18.20
2019-03-20T04:56:50.274Z,19.43
2019-03-20T04:59:18.419Z,16.77
2019-03-20T05:01:46.488Z,19.33
2019-03-20T05:04:14.553Z,19.63
2019-03-20T05:06:42.624Z,19.80
2019-03-20T05:09:10.683Z,20.43
2019-03-20T05:11:38.809Z,21.63
2019-03-20T05:14:07.191Z,21.50
2019-03-20T05:16:35.262Z,21.70
2019-03-20T05:19:03.326Z,20.90
2019-03-20T05:21:31.391Z,27.57
2019-03-20T05:23:59.496Z,26.80
2019-03-20T05:26:27.560Z,25.40
2019-03-20T05:28:55.655Z,25.97
2019-03-20T05:31:23.692Z,25.57
2019-03-20T05:33:52.210Z,26.83
2019-03-20T05:36:20.663Z,26.70
2019-03-20T05:38:48.805Z,25.83
2019-03-20T05:41:17.081Z,25.63
2019-03-20T05:43:45.153Z,27.93
2019-03-20T05:46:13.201Z,30.77
2019-03-20T05:48:41.305Z,27.97
2019-03-20T05:51:09.400Z,33.20
2019-03-20T05:53:37.441Z,28.77
2019-03-20T05:56:05.532Z,30.87
2019-03-20T05:58:33.589Z,31.40
2019-03-20T06:01:01.648Z,32.60
2019-03-20T06:03:29.705Z,30.03
2019-03-20T06:05:57.832Z,32.77
2019-03-20T06:08:25.932Z,30.37
2019-03-20T06:10:54.043Z,30.67
2019-03-20T06:13:23.943Z,27.30
2019-03-20T06:15:53.320Z,29.07
2019-03-20T06:18:24.247Z,32.47
2019-03-20T06:20:58.628Z,27.87
2019-03-20T06:23:29.470Z,30.93
2019-03-20T06:26:01.765Z,30.27
2019-03-20T06:28:35.223Z,30.00
2019-03-20T06:31:05.978Z,29.00
2019-03-20T06:33:44.423Z,33.70
2019-03-20T06:39:26.498Z,29.33
2019-03-20T06:41:58.479Z,30.77
2019-03-20T06:44:26.983Z,41.80
2019-03-20T06:50:36.102Z,32.60
2019-03-20T06:53:06.060Z,27.53
2019-03-20T06:55:45.998Z,30.27
2019-03-20T06:58:33.222Z,31.70
2019-03-20T07:01:26.291Z,33.90
2019-03-20T07:04:11.805Z,33.10
2019-03-20T07:06:57.613Z,32.67
2019-03-20T07:09:36.305Z,33.60
2019-03-20T07:12:04.343Z,32.87
2019-03-20T07:15:01.447Z,32.80
2019-03-20T07:17:45.985Z,32.43
2019-03-20T07:20:25.822Z,29.73
2019-03-20T07:22:57.964Z,36.63
2019-03-20T07:25:26.498Z,36.23
2019-03-20T07:28:02.933Z,33.47
2019-03-20T07:30:32.204Z,30.93
2019-03-20T07:33:06.621Z,35.70
2019-03-20T07:35:39.693Z,33.17
2019-03-20T07:38:09.655Z,36.97
2019-03-20T07:40:37.906Z,33.33
2019-03-20T07:43:39.751Z,35.37
2019-03-20T07:46:15.810Z,34.07
2019-03-20T07:49:10.489Z,36.73
2019-03-20T07:52:06.247Z,32.23
2019-03-20T07:54:41.083Z,33.63
2019-03-20T07:57:12.426Z,36.80
2019-03-20T07:59:43.604Z,35.10
2019-03-20T08:02:17.634Z,30.90
2019-03-20T08:04:46.196Z,33.00
2019-03-20T08:07:17.472Z,32.10
2019-03-20T08:09:48.692Z,33.77
2019-03-20T08:12:16.972Z,31.10
2019-03-20T08:14:54.294Z,28.57
2019-03-20T08:17:31.065Z,32.37
2019-03-20T08:20:15.472Z,27.23
2019-03-20T08:22:47.714Z,35.27
2019-03-20T08:25:39.523Z,29.87
2019-03-20T08:31:17.670Z,27.70
2019-03-20T08:36:42.638Z,35.23
2019-03-20T08:39:17.139Z,30.60
2019-03-20T08:41:50.941Z,28.17
2019-03-20T08:44:21.344Z,31.60
2019-03-20T08:47:00.006Z,30.27
2019-03-20T08:49:32.514Z,31.07
2019-03-20T08:52:02.923Z,33.03
2019-03-20T08:54:35.323Z,28.00
2019-03-20T08:57:03.390Z,35.63
2019-03-20T08:59:31.741Z,28.47
2019-03-20T09:01:59.817Z,30.33
2019-03-20T09:04:30.346Z,28.03
2019-03-20T09:06:58.508Z,31.97
2019-03-20T09:09:26.640Z,27.37
2019-03-20T09:11:56.560Z,29.27
2019-03-20T09:14:24.649Z,30.30
2019-03-20T09:16:52.825Z,27.57
2019-03-20T09:19:20.969Z,26.63
2019-03-20T09:21:49.074Z,29.00
2019-03-20T09:24:17.257Z,28.23
2019-03-20T09:26:45.391Z,26.20
2019-03-20T09:29:18.483Z,33.70
2019-03-20T09:31:43.435Z,29.17
2019-03-20T09:34:11.544Z,26.93
2019-03-20T09:36:51.192Z,27.33
2019-03-20T09:39:25.362Z,25.33
2019-03-20T09:42:40.760Z,28.00
2019-03-20T09:44:47.864Z,27.27
2019-03-20T09:47:28.906Z,28.97
2019-03-20T09:50:00.059Z,23.00
2019-03-20T09:52:38.383Z,28.07
2019-03-20T09:55:06.604Z,23.07
2019-03-20T09:57:34.643Z,27.77
2019-03-20T10:00:02.759Z,28.63
2019-03-20T10:02:30.952Z,26.87
2019-03-20T10:04:59.258Z,26.83
2019-03-20T10:07:27.370Z,28.07
2019-03-20T10:09:55.445Z,25.53
2019-03-20T10:12:23.555Z,23.07
2019-03-20T10:14:51.847Z,27.00
2019-03-20T10:17:19.930Z,29.23
2019-03-20T10:19:48.040Z,24.43
2019-03-20T10:22:16.148Z,34.73
2019-03-20T10:24:44.275Z,28.13
2019-03-20T10:27:12.377Z,26.57
2019-03-20T10:29:40.547Z,31.63
2019-03-20T10:32:08.617Z,28.70
2019-03-20T10:34:39.671Z,35.37
2019-03-20T10:37:06.440Z,28.83
2019-03-20T10:39:34.528Z,29.73
2019-03-20T10:42:02.621Z,27.50
2019-03-20T10:44:30.691Z,30.60
2019-03-20T10:46:58.944Z,26.40
2019-03-20T10:49:27.093Z,29.77
2019-03-20T10:51:55.151Z,30.63
2019-03-20T10:54:24.636Z,30.03
2019-03-20T10:56:52.845Z,32.33
2019-03-20T10:59:20.965Z,29.77
2019-03-20T11:01:49.306Z,29.13
2019-03-20T11:04:17.374Z,33.97
2019-03-20T11:06:45.588Z,29.27
2019-03-20T11:09:18.107Z,32.40
2019-03-20T11:11:43.472Z,30.53
2019-03-20T11:14:11.598Z,32.47
2019-03-20T11:16:39.804Z,31.03
2019-03-20T11:19:07.833Z,31.23
2019-03-20T11:21:35.932Z,29.60
2019-03-20T11:24:04.017Z,36.20
2019-03-20T11:26:32.173Z,32.73
2019-03-20T11:29:00.263Z,31.70
2019-03-20T11:31:28.370Z,33.63
2019-03-20T11:33:56.490Z,30.50
2019-03-20T11:36:24.578Z,33.17
2019-03-20T11:38:52.664Z,31.70
2019-03-20T11:41:20.737Z,32.83
2019-03-20T11:43:48.835Z,36.97
2019-03-20T11:46:16.925Z,33.57
2019-03-20T11:48:45.109Z,37.47
2019-03-20T11:51:13.269Z,37.03
2019-03-20T11:53:41.436Z,33.60
2019-03-20T11:56:09.547Z,34.90
2019-03-20T11:58:38.011Z,33.03
2019-03-20T12:01:06.067Z,31.67
2019-03-20T12:03:34.255Z,39.80
2019-03-20T12:06:02.320Z,30.07
2019-03-20T12:08:30.390Z,31.80
2019-03-20T12:10:58.702Z,31.17
2019-03-20T12:13:26.939Z,31.77
2019-03-20T12:15:55.035Z,29.87
2019-03-20T12:18:23.103Z,35.40
2019-03-20T12:20:51.195Z,32.20
2019-03-20T12:23:19.332Z,34.47
2019-03-20T12:25:47.365Z,30.47
2019-03-20T12:28:15.457Z,34.97
2019-03-20T12:30:43.641Z,38.77
2019-03-20T12:33:11.705Z,35.87
2019-03-20T12:35:39.784Z,36.93
2019-03-20T12:38:14.217Z,32.67
2019-03-20T12:40:38.040Z,35.77
2019-03-20T12:43:06.535Z,35.60
2019-03-20T12:45:34.723Z,38.30
2019-03-20T12:48:02.772Z,36.20
2019-03-20T12:50:31.027Z,37.90
2019-03-20T12:53:01.510Z,39.13
2019-03-20T12:55:30.927Z,39.17
2019-03-20T12:57:58.529Z,36.13
2019-03-20T13:00:27.562Z,35.23
2019-03-20T13:02:55.767Z,34.43
2019-03-20T13:05:23.810Z,39.57
2019-03-20T13:07:51.899Z,34.80
2019-03-20T13:10:19.963Z,39.07
2019-03-20T13:12:48.222Z,31.50
2019-03-20T13:15:20.019Z,37.73
2019-03-20T13:17:48.182Z,42.50
2019-03-20T13:20:16.243Z,35.10
2019-03-20T13:22:44.690Z,40.73
2019-03-20T13:25:13.648Z,38.03
2019-03-20T13:27:41.760Z,39.97
2019-03-20T13:30:19.826Z,38.50
2019-03-20T13:32:41.628Z,42.27
2019-03-20T13:35:09.745Z,37.67
2019-03-20T13:37:37.808Z,40.23
2019-03-20T13:40:13.852Z,38.63
2019-03-20T13:43:09.367Z,40.53
2019-03-20T13:45:37.441Z,39.80
2019-03-20T13:51:15.354Z,43.70
2019-03-20T13:53:43.422Z,36.07
2019-03-20T13:56:11.487Z,38.50
2019-03-20T13:58:39.605Z,35.90
2019-03-20T14:01:07.787Z,37.13
2019-03-20T14:03:35.939Z,41.87
2019-03-20T14:06:04.095Z,41.60
2019-03-20T14:08:32.203Z,38.93
2019-03-20T14:11:00.291Z,38.03
2019-03-20T14:13:28.472Z,42.80
2019-03-20T14:15:56.580Z,44.93
2019-03-20T14:18:24.735Z,40.40
2019-03-20T14:20:52.984Z,42.67
2019-03-20T14:23:42.015Z,42.60
2019-03-20T14:26:36.800Z,37.53
2019-03-20T14:29:04.895Z,46.40
2019-03-20T14:31:38.221Z,41.30
2019-03-20T14:34:08.160Z,44.00
2019-03-20T14:36:57.690Z,42.30
2019-03-20T14:39:37.980Z,45.70
2019-03-20T14:42:06.992Z,46.97
2019-03-20T14:44:58.016Z,44.23
2019-03-20T14:47:28.221Z,41.47
2019-03-20T14:49:56.380Z,44.07
2019-03-20T14:52:24.427Z,43.77
2019-03-20T14:54:54.081Z,43.30
2019-03-20T15:00:32.094Z,46.73
2019-03-20T15:03:00.305Z,54.07
2019-03-20T15:05:34.670Z,43.13
2019-03-20T15:08:05.404Z,46.80
2019-03-20T15:10:45.648Z,49.57
2019-03-20T15:13:17.397Z,42.00
2019-03-20T15:15:52.195Z,43.53
2019-03-20T15:18:26.611Z,42.93
2019-03-20T15:21:04.580Z,43.17
2019-03-20T15:23:38.769Z,42.70
2019-03-20T15:26:07.482Z,44.37
2019-03-20T15:28:35.703Z,43.53
2019-03-20T15:31:05.611Z,40.70
2019-03-20T15:33:35.464Z,40.93
2019-03-20T15:36:04.245Z,41.10
2019-03-20T15:38:34.015Z,44.63
2019-03-20T15:41:04.504Z,41.97
2019-03-20T15:43:36.312Z,46.37
2019-03-20T15:46:04.829Z,49.90
2019-03-20T15:48:34.414Z,45.40
2019-03-20T15:51:03.051Z,46.27
2019-03-20T15:53:33.958Z,43.33
2019-03-20T15:56:02.231Z,43.73
2019-03-20T15:58:30.599Z,45.67
2019-03-20T16:00:58.657Z,46.07
2019-03-20T16:03:26.769Z,42.40
2019-03-20T16:05:54.921Z,41.70
2019-03-20T16:11:32.904Z,41.87
2019-03-20T16:14:00.968Z,42.77
2019-03-20T16:16:31.340Z,46.40
2019-03-20T16:19:13.419Z,43.13
2019-03-20T16:21:42.278Z,45.43
2019-03-20T16:24:10.436Z,46.37
2019-03-20T16:26:38.523Z,45.80
2019-03-20T16:32:21.037Z,48.30
2019-03-20T16:34:52.062Z,43.80
2019-03-20T16:37:20.243Z,46.50
2019-03-20T16:39:48.328Z,41.87
2019-03-20T16:42:18.443Z,45.80
2019-03-20T16:44:46.865Z,47.47
2019-03-20T16:47:15.112Z,47.67
2019-03-20T16:49:45.114Z,47.13
2019-03-20T16:52:15.570Z,50.63
2019-03-20T16:54:43.682Z,46.27
2019-03-20T16:57:15.100Z,46.10
2019-03-20T16:59:43.164Z,53.17
2019-03-20T17:02:11.983Z,46.37
2019-03-20T17:04:40.089Z,45.97
2019-03-20T17:10:20.988Z,48.30
2019-03-20T17:12:49.832Z,50.03
2019-03-20T17:15:31.908Z,52.83
2019-03-20T17:18:02.275Z,54.50
2019-03-20T17:20:30.433Z,57.10
2019-03-20T17:22:58.764Z,51.50
2019-03-20T17:25:26.928Z,51.13
2019-03-20T17:27:55.083Z,48.73
2019-03-20T17:30:24.467Z,49.00
2019-03-20T17:32:52.639Z,52.27
2019-03-20T17:35:20.799Z,53.07
2019-03-20T17:37:48.894Z,52.87
2019-03-20T17:40:17.477Z,56.23
2019-03-20T17:42:45.637Z,57.07
2019-03-20T17:45:14.173Z,54.23
2019-03-20T17:47:42.431Z,52.13
2019-03-20T17:50:13.751Z,49.87
2019-03-20T17:53:08.692Z,48.97
2019-03-20T17:55:37.145Z,49.33
2019-03-20T17:58:05.497Z,50.83
2019-03-20T18:00:47.387Z,51.87
2019-03-20T18:03:16.091Z,57.23
2019-03-20T18:08:42.898Z,62.23
2019-03-20T18:11:11.134Z,52.53
2019-03-20T18:13:39.708Z,55.23
2019-03-20T18:16:29.047Z,51.67
2019-03-20T18:18:57.264Z,49.37
2019-03-20T18:21:52.420Z,56.97
2019-03-20T18:24:21.235Z,51.67
2019-03-20T18:26:51.548Z,49.47
2019-03-20T18:29:24.465Z,52.73
2019-03-20T18:38:02.488Z,51.40
2019-03-20T18:48:45.350Z,54.30
2019-03-20T18:51:18.905Z,61.57
2019-03-20T18:53:47.816Z,52.90
2019-03-20T18:56:16.089Z,54.33
2019-03-20T18:58:44.480Z,52.93
2019-03-20T19:01:13.246Z,53.50
2019-03-20T19:03:43.980Z,53.00
2019-03-20T19:09:38.528Z,54.40
2019-03-20T19:12:24.864Z,55.47
2019-03-20T19:15:05.582Z,55.73
2019-03-20T19:17:44.009Z,56.20
2019-03-20T19:20:27.003Z,57.17
2019-03-20T19:23:14.771Z,56.73
2019-03-20T19:25:55.871Z,56.97
2019-03-20T19:28:34.367Z,64.03
2019-03-20T19:34:16.605Z,57.83
2019-03-20T19:36:54.023Z,60.53
2019-03-20T19:39:31.127Z,59.40
2019-03-20T19:42:19.309Z,58.73
2019-03-20T19:44:47.127Z,57.57
2019-03-20T19:47:22.216Z,57.83
2019-03-20T19:49:58.741Z,56.63
2019-03-20T19:52:35.930Z,58.83
2019-03-20T19:55:12.326Z,58.03
2019-03-20T19:58:05.453Z,57.80
2019-03-20T20:00:39.062Z,60.20
2019-03-20T20:03:15.451Z,60.67
2019-03-20T20:05:54.194Z,60.67
2019-03-20T20:08:30.159Z,60.07
2019-03-20T20:11:04.321Z,64.43
2019-03-20T20:13:42.231Z,63.67
2019-03-20T20:16:16.355Z,63.60
2019-03-20T20:18:49.068Z,69.97
2019-03-20T20:21:17.181Z,65.80
2019-03-20T20:23:45.322Z,64.83
2019-03-20T20:26:13.498Z,64.03
2019-03-20T20:28:41.918Z,62.47
2019-03-20T20:31:10.274Z,60.33
2019-03-20T20:33:38.561Z,62.70
2019-03-20T20:36:06.919Z,63.37
2019-03-20T20:38:36.255Z,65.03
2019-03-20T20:41:04.853Z,57.37
2019-03-20T20:43:33.377Z,64.47
2019-03-20T20:46:01.960Z,63.07
2019-03-20T20:48:30.408Z,64.20
2019-03-20T20:50:58.672Z,67.27
2019-03-20T20:53:27.055Z,65.90
2019-03-20T20:55:55.236Z,69.37
2019-03-20T20:58:24.028Z,65.50
2019-03-20T21:00:52.281Z,63.90
2019-03-20T21:03:20.512Z,67.53
2019-03-20T21:05:49.024Z,59.03
2019-03-20T21:08:17.429Z,63.37
2019-03-20T21:10:45.935Z,60.80
2019-03-20T21:13:14.311Z,66.70
2019-03-20T21:15:43.795Z,63.90
2019-03-20T21:18:34.464Z,63.70
2019-03-20T21:21:03.123Z,61.53
2019-03-20T21:23:39.336Z,59.07
2019-03-20T21:26:08.038Z,55.23
2019-03-20T21:28:58.731Z,60.10
2019-03-20T21:31:32.533Z,53.03
2019-03-20T21:34:23.056Z,57.50
2019-03-20T21:37:24.399Z,54.47
2019-03-20T21:39:53.337Z,53.03
2019-03-20T21:42:40.681Z,58.17
2019-03-20T21:45:33.821Z,59.23
2019-03-20T21:48:03.042Z,63.90
2019-03-20T21:50:44.427Z,58.97
2019-03-20T21:53:14.777Z,64.60
2019-03-20T21:56:00.965Z,60.90
2019-03-20T21:58:41.956Z,61.80
2019-03-20T22:01:42.116Z,60.80
2019-03-20T22:04:10.705Z,63.93
2019-03-20T22:07:01.094Z,64.43
2019-03-20T22:09:57.486Z,61.17
2019-03-20T22:12:31.396Z,59.33
2019-03-20T22:15:05.491Z,63.77
2019-03-20T22:17:52.804Z,60.77
2019-03-20T22:20:40.143Z,62.67
2019-03-20T22:23:18.918Z,65.37
2019-03-20T22:26:09.537Z,63.87
2019-03-20T22:29:11.979Z,63.43
2019-03-20T22:31:42.380Z,63.23
2019-03-20T22:34:28.748Z,66.83
2019-03-20T22:36:57.497Z,62.73
2019-03-20T22:39:43.724Z,63.73
2019-03-20T22:42:30.583Z,67.13
2019-03-20T22:45:08.769Z,61.87
2019-03-20T22:47:56.442Z,65.63
2019-03-20T22:50:31.459Z,68.30
2019-03-20T22:53:19.994Z,68.37
2019-03-20T22:55:55.550Z,66.57
2019-03-20T22:58:43.116Z,72.63
2019-03-20T23:01:36.293Z,78.47
2019-03-20T23:04:07.439Z,64.93
2019-03-20T23:06:36.241Z,69.77
2019-03-20T23:09:08.550Z,68.27
2019-03-20T23:11:44.699Z,70.87
2019-03-20T23:14:13.342Z,71.40
2019-03-20T23:16:42.891Z,70.03
2019-03-20T23:19:11.642Z,85.20
2019-03-20T23:21:40.254Z,86.17
2019-03-20T23:24:08.899Z,80.70
2019-03-20T23:26:37.345Z,83.80
2019-03-20T23:29:06.009Z,85.27
2019-03-20T23:31:34.647Z,86.83
2019-03-20T23:34:06.214Z,84.67
2019-03-20T23:36:34.866Z,81.27
2019-03-20T23:39:02.734Z,86.47
2019-03-20T23:41:31.670Z,84.77
2019-03-20T23:44:00.620Z,84.97
2019-03-20T23:46:29.139Z,95.97
2019-03-20T23:49:02.925Z,90.20
2019-03-20T23:51:31.389Z,97.43
2019-03-20T23:53:59.970Z,93.57
2019-03-20T23:56:29.690Z,96.07
2019-03-20T23:58:58.374Z,94.40
